Strona główna
METAR-TAF:

METAR-TAF

Lotnisko :

Westminster, Maryland, Stany Zjednoczone

Szerokość geograficzna: 39-36-30N, Długość geograficzna: 077-00-28W, wysokość: 240 m

Aktualna obserwacja pogody

Raport powstał 21 minut temu, godzina 15:15 UTC
Wiatr 8 kt od południowy wschód
Temperatura 23°C
Wilgotność 57%
Ciśnienie 1023 hPa
Widzialność: 16.1 km
Rozproszone chmury na wysokości 6000 ft
Przerywane chmury na wysokości 7000 ft

METAR: KDMW 251515Z AUTO 14008KT 10SM SCT060 BKN070 23/14 A3021 RMK AO2

czas: 11:36 (15:36 UTC)


TAF: brakujący

Obserwacja i prognoza pogody dla ponad 4000 lotnisk (raport METAR i TAF).

Dostępne stacje oznaczono żółtymi i czerwonymi punktami na mapie.

Najedź kursorem aby zobaczyć nazwę stacji.

Kliknij aby zobaczyć obserwacje i prognozy pogody.

Aby zmienić mapę: kliknij na zielony przycisk z czarnym krzyżykiem, aby powiększyć; na zielony przycisk z myślnikiem, aby pomniejszyć; na zielone strzałki, aby przejść do map sąsiednich.


METAR-TAF: